sensor_id;sensor_type;location;lat;lon;timestamp;pressure;altitude;pressure_sealevel;temperature;humidity
55271;BME280;41132;47.162;9.470;2023-05-23T00:01:26;96315.81;;;17.32;100.00
55271;BME280;41132;47.162;9.470;2023-05-23T00:03:51;96303.16;;;17.21;100.00
55271;BME280;41132;47.162;9.470;2023-05-23T00:06:19;96321.34;;;17.31;100.00
55271;BME280;41132;47.162;9.470;2023-05-23T00:08:45;96319.53;;;17.38;100.00
55271;BME280;41132;47.162;9.470;2023-05-23T00:11:10;96314.22;;;17.38;100.00
55271;BME280;41132;47.162;9.470;2023-05-23T00:13:37;96328.50;;;17.57;100.00
55271;BME280;41132;47.162;9.470;2023-05-23T00:16:04;96327.88;;;17.55;100.00
55271;BME280;41132;47.162;9.470;2023-05-23T00:18:29;96318.09;;;17.49;100.00
55271;BME280;41132;47.162;9.470;2023-05-23T00:20:55;96325.25;;;17.68;100.00
55271;BME280;41132;47.162;9.470;2023-05-23T00:23:21;96322.81;;;17.67;100.00
55271;BME280;41132;47.162;9.470;2023-05-23T00:25:49;96321.34;;;17.58;100.00
55271;BME280;41132;47.162;9.470;2023-05-23T00:28:18;96330.16;;;17.45;100.00
55271;BME280;41132;47.162;9.470;2023-05-23T00:30:43;96318.72;;;17.38;100.00
55271;BME280;41132;47.162;9.470;2023-05-23T00:33:09;96310.75;;;17.24;100.00
55271;BME280;41132;47.162;9.470;2023-05-23T00:35:34;96313.19;;;17.32;100.00
55271;BME280;41132;47.162;9.470;2023-05-23T00:37:59;96322.78;;;17.33;100.00
55271;BME280;41132;47.162;9.470;2023-05-23T00:40:26;96329.31;;;17.31;100.00
55271;BME280;41132;47.162;9.470;2023-05-23T00:42:51;96313.16;;;17.13;100.00
55271;BME280;41132;47.162;9.470;2023-05-23T00:45:17;96330.53;;;17.42;100.00
55271;BME280;41132;47.162;9.470;2023-05-23T00:47:43;96327.88;;;17.48;100.00
55271;BME280;41132;47.162;9.470;2023-05-23T00:50:11;96326.06;;;17.56;100.00
55271;BME280;41132;47.162;9.470;2023-05-23T00:52:37;96329.09;;;17.46;100.00
55271;BME280;41132;47.162;9.470;2023-05-23T00:55:03;96318.91;;;17.43;100.00
55271;BME280;41132;47.162;9.470;2023-05-23T00:57:29;96316.84;;;17.25;100.00
55271;BME280;41132;47.162;9.470;2023-05-23T00:59:55;96322.56;;;17.22;100.00
55271;BME280;41132;47.162;9.470;2023-05-23T01:02:20;96324.97;;;17.03;100.00
55271;BME280;41132;47.162;9.470;2023-05-23T01:04:50;96330.88;;;17.05;100.00
55271;BME280;41132;47.162;9.470;2023-05-23T01:07:19;96328.44;;;17.04;100.00
55271;BME280;41132;47.162;9.470;2023-05-23T01:09:45;96333.53;;;17.05;100.00
55271;BME280;41132;47.162;9.470;2023-05-23T01:15:07;96334.56;;;17.11;100.00
55271;BME280;41132;47.162;9.470;2023-05-23T01:17:49;96342.97;;;17.35;100.00
55271;BME280;41132;47.162;9.470;2023-05-23T01:20:32;96344.19;;;17.25;100.00
55271;BME280;41132;47.162;9.470;2023-05-23T01:23:04;96347.28;;;17.36;100.00
55271;BME280;41132;47.162;9.470;2023-05-23T01:28:36;96337.28;;;17.31;100.00
55271;BME280;41132;47.162;9.470;2023-05-23T01:31:03;96342.16;;;17.27;100.00
55271;BME280;41132;47.162;9.470;2023-05-23T01:33:31;96330.88;;;17.12;100.00
55271;BME280;41132;47.162;9.470;2023-05-23T01:36:00;96340.53;;;17.26;100.00
55271;BME280;41132;47.162;9.470;2023-05-23T01:38:26;96338.06;;;17.25;100.00
55271;BME280;41132;47.162;9.470;2023-05-23T01:40:52;96313.94;;;16.93;100.00
55271;BME280;41132;47.162;9.470;2023-05-23T01:43:18;96296.00;;;17.02;100.00
55271;BME280;41132;47.162;9.470;2023-05-23T01:45:43;96307.59;;;16.81;100.00
55271;BME280;41132;47.162;9.470;2023-05-23T01:48:10;96330.88;;;16.92;100.00
55271;BME280;41132;47.162;9.470;2023-05-23T01:50:37;96338.38;;;16.88;100.00
55271;BME280;41132;47.162;9.470;2023-05-23T01:53:03;96313.81;;;16.66;100.00
55271;BME280;41132;47.162;9.470;2023-05-23T01:55:29;96334.03;;;16.74;100.00
55271;BME280;41132;47.162;9.470;2023-05-23T01:57:56;96316.47;;;16.66;100.00
55271;BME280;41132;47.162;9.470;2023-05-23T02:00:22;96337.28;;;16.69;100.00
55271;BME280;41132;47.162;9.470;2023-05-23T02:02:48;96334.44;;;16.78;100.00
55271;BME280;41132;47.162;9.470;2023-05-23T02:05:13;96321.75;;;16.66;100.00
55271;BME280;41132;47.162;9.470;2023-05-23T02:07:39;96325.22;;;16.60;100.00
55271;BME280;41132;47.162;9.470;2023-05-23T02:10:07;96335.38;;;16.57;100.00
55271;BME280;41132;47.162;9.470;2023-05-23T02:12:32;96345.59;;;16.66;100.00
55271;BME280;41132;47.162;9.470;2023-05-23T02:14:58;96340.91;;;16.62;100.00
55271;BME280;41132;47.162;9.470;2023-05-23T02:17:23;96339.19;;;16.41;100.00
55271;BME280;41132;47.162;9.470;2023-05-23T02:19:49;96352.41;;;16.41;100.00
55271;BME280;41132;47.162;9.470;2023-05-23T02:22:14;96318.34;;;16.31;100.00
55271;BME280;41132;47.162;9.470;2023-05-23T02:24:40;96343.28;;;16.50;100.00
55271;BME280;41132;47.162;9.470;2023-05-23T02:27:05;96329.91;;;16.58;100.00
55271;BME280;41132;47.162;9.470;2023-05-23T02:29:31;96338.66;;;16.59;100.00
55271;BME280;41132;47.162;9.470;2023-05-23T02:31:56;96340.19;;;16.81;100.00
55271;BME280;41132;47.162;9.470;2023-05-23T02:34:22;96338.88;;;16.64;100.00
55271;BME280;41132;47.162;9.470;2023-05-23T02:36:47;96346.66;;;16.72;100.00
55271;BME280;41132;47.162;9.470;2023-05-23T02:39:13;96345.59;;;16.66;100.00
55271;BME280;41132;47.162;9.470;2023-05-23T02:41:38;96350.28;;;16.64;100.00
55271;BME280;41132;47.162;9.470;2023-05-23T02:44:04;96335.81;;;16.60;100.00
55271;BME280;41132;47.162;9.470;2023-05-23T02:46:29;96334.97;;;16.60;100.00
55271;BME280;41132;47.162;9.470;2023-05-23T02:48:55;96332.31;;;16.60;100.00
55271;BME280;41132;47.162;9.470;2023-05-23T02:51:20;96338.88;;;16.64;100.00
55271;BME280;41132;47.162;9.470;2023-05-23T02:53:46;96330.69;;;16.59;100.00
55271;BME280;41132;47.162;9.470;2023-05-23T02:56:11;96341.16;;;16.67;100.00
55271;BME280;41132;47.162;9.470;2023-05-23T02:58:37;96347.91;;;16.76;100.00
55271;BME280;41132;47.162;9.470;2023-05-23T03:01:04;96341.75;;;16.62;100.00
55271;BME280;41132;47.162;9.470;2023-05-23T03:03:30;96345.19;;;16.63;100.00
55271;BME280;41132;47.162;9.470;2023-05-23T03:06:01;96341.84;;;16.47;100.00
55271;BME280;41132;47.162;9.470;2023-05-23T03:08:27;96352.59;;;16.39;100.00
55271;BME280;41132;47.162;9.470;2023-05-23T03:10:52;96344.44;;;16.34;100.00
55271;BME280;41132;47.162;9.470;2023-05-23T03:13:18;96350.84;;;16.46;100.00
55271;BME280;41132;47.162;9.470;2023-05-23T03:15:43;96352.91;;;16.58;100.00
55271;BME280;41132;47.162;9.470;2023-05-23T03:18:09;96319.41;;;16.43;100.00
55271;BME280;41132;47.162;9.470;2023-05-23T03:20:35;96362.50;;;16.59;100.00
55271;BME280;41132;47.162;9.470;2023-05-23T03:23:00;96366.16;;;16.58;100.00
55271;BME280;41132;47.162;9.470;2023-05-23T03:25:25;96366.16;;;16.58;100.00
55271;BME280;41132;47.162;9.470;2023-05-23T03:27:51;96369.00;;;16.56;100.00
55271;BME280;41132;47.162;9.470;2023-05-23T03:30:16;96373.94;;;16.66;100.00
55271;BME280;41132;47.162;9.470;2023-05-23T03:32:41;96378.63;;;16.64;100.00
55271;BME280;41132;47.162;9.470;2023-05-23T03:35:07;96386.56;;;16.64;100.00
55271;BME280;41132;47.162;9.470;2023-05-23T03:37:33;96370.59;;;16.50;100.00
55271;BME280;41132;47.162;9.470;2023-05-23T03:39:58;96384.31;;;16.61;100.00
55271;BME280;41132;47.162;9.470;2023-05-23T03:42:23;96392.88;;;16.63;100.00
55271;BME280;41132;47.162;9.470;2023-05-23T03:44:49;96393.25;;;16.60;100.00
55271;BME280;41132;47.162;9.470;2023-05-23T03:47:14;96403.09;;;16.66;100.00
55271;BME280;41132;47.162;9.470;2023-05-23T03:49:40;96390.00;;;16.58;100.00
55271;BME280;41132;47.162;9.470;2023-05-23T03:52:05;96399.19;;;16.62;100.00
55271;BME280;41132;47.162;9.470;2023-05-23T03:54:30;96404.91;;;16.65;100.00
55271;BME280;41132;47.162;9.470;2023-05-23T03:56:56;96410.03;;;16.67;100.00
55271;BME280;41132;47.162;9.470;2023-05-23T03:59:21;96403.44;;;16.56;100.00
55271;BME280;41132;47.162;9.470;2023-05-23T04:01:47;96404.88;;;16.59;100.00
55271;BME280;41132;47.162;9.470;2023-05-23T04:04:12;96395.69;;;16.55;100.00
55271;BME280;41132;47.162;9.470;2023-05-23T04:06:37;96401.69;;;16.70;100.00
55271;BME280;41132;47.162;9.470;2023-05-23T04:09:03;96392.00;;;16.84;100.00
55271;BME280;41132;47.162;9.470;2023-05-23T04:11:30;96396.28;;;16.91;100.00
55271;BME280;41132;47.162;9.470;2023-05-23T04:13:55;96402.22;;;16.94;100.00
55271;BME280;41132;47.162;9.470;2023-05-23T04:16:21;96371.31;;;16.73;100.00
55271;BME280;41132;47.162;9.470;2023-05-23T04:18:48;96388.94;;;16.87;100.00
55271;BME280;41132;47.162;9.470;2023-05-23T04:21:14;96372.94;;;16.74;100.00
55271;BME280;41132;47.162;9.470;2023-05-23T04:23:40;96384.22;;;16.82;100.00
55271;BME280;41132;47.162;9.470;2023-05-23T04:26:05;96388.84;;;16.74;100.00
55271;BME280;41132;47.162;9.470;2023-05-23T04:28:30;96405.66;;;16.81;100.00
55271;BME280;41132;47.162;9.470;2023-05-23T04:33:31;96382.88;;;16.58;100.00
55271;BME280;41132;47.162;9.470;2023-05-23T04:35:58;96408.84;;;16.76;100.00
55271;BME280;41132;47.162;9.470;2023-05-23T04:43:33;96407.28;;;16.82;100.00
55271;BME280;41132;47.162;9.470;2023-05-23T04:45:59;96388.22;;;16.65;100.00
55271;BME280;41132;47.162;9.470;2023-05-23T04:48:24;96393.94;;;16.75;100.00
55271;BME280;41132;47.162;9.470;2023-05-23T04:50:51;96408.91;;;16.89;100.00
55271;BME280;41132;47.162;9.470;2023-05-23T05:59:43;96425.41;;;16.50;100.00
55271;BME280;41132;47.162;9.470;2023-05-23T06:02:08;96412.88;;;16.31;100.00
55271;BME280;41132;47.162;9.470;2023-05-23T06:04:34;96445.47;;;16.31;100.00
55271;BME280;41132;47.162;9.470;2023-05-23T06:06:59;96441.88;;;16.45;100.00
55271;BME280;41132;47.162;9.470;2023-05-23T06:09:25;96418.19;;;16.31;100.00
55271;BME280;41132;47.162;9.470;2023-05-23T06:11:50;96437.34;;;16.39;100.00
55271;BME280;41132;47.162;9.470;2023-05-23T06:14:15;96450.75;;;16.31;100.00
55271;BME280;41132;47.162;9.470;2023-05-23T06:16:41;96442.19;;;16.29;100.00
55271;BME280;41132;47.162;9.470;2023-05-23T06:19:06;96445.50;;;16.10;100.00
55271;BME280;41132;47.162;9.470;2023-05-23T06:21:32;96452.28;;;16.19;100.00
55271;BME280;41132;47.162;9.470;2023-05-23T06:23:57;96458.78;;;16.16;100.00
55271;BME280;41132;47.162;9.470;2023-05-23T06:26:23;96453.19;;;16.26;100.00
55271;BME280;41132;47.162;9.470;2023-05-23T06:28:48;96448.81;;;16.18;100.00
55271;BME280;41132;47.162;9.470;2023-05-23T06:31:13;96457.56;;;16.19;100.00
55271;BME280;41132;47.162;9.470;2023-05-23T06:33:39;96434.84;;;16.03;100.00
55271;BME280;41132;47.162;9.470;2023-05-23T06:36:04;96447.38;;;16.16;100.00
55271;BME280;41132;47.162;9.470;2023-05-23T06:38:30;96458.66;;;16.24;100.00
55271;BME280;41132;47.162;9.470;2023-05-23T06:40:58;96468.28;;;16.32;100.00
55271;BME280;41132;47.162;9.470;2023-05-23T06:43:24;96466.66;;;16.31;100.00
55271;BME280;41132;47.162;9.470;2023-05-23T06:45:49;96466.22;;;16.27;100.00
55271;BME280;41132;47.162;9.470;2023-05-23T06:48:15;96464.75;;;16.25;100.00
55271;BME280;41132;47.162;9.470;2023-05-23T06:50:40;96479.09;;;16.31;100.00
55271;BME280;41132;47.162;9.470;2023-05-23T06:53:06;96466.97;;;16.21;100.00
55271;BME280;41132;47.162;9.470;2023-05-23T06:55:32;96470.28;;;16.30;100.00
55271;BME280;41132;47.162;9.470;2023-05-23T06:57:59;96467.69;;;16.37;100.00
55271;BME280;41132;47.162;9.470;2023-05-23T07:00:24;96430.63;;;16.08;100.00
55271;BME280;41132;47.162;9.470;2023-05-23T07:02:50;96456.59;;;16.20;100.00
55271;BME280;41132;47.162;9.470;2023-05-23T07:05:15;96477.47;;;16.36;100.00
55271;BME280;41132;47.162;9.470;2023-05-23T07:07:42;96478.91;;;16.39;100.00
55271;BME280;41132;47.162;9.470;2023-05-23T07:10:08;96448.66;;;16.20;100.00
55271;BME280;41132;47.162;9.470;2023-05-23T07:12:33;96470.63;;;16.20;100.00
55271;BME280;41132;47.162;9.470;2023-05-23T07:14:59;96463.78;;;16.26;100.00
55271;BME280;41132;47.162;9.470;2023-05-23T07:17:24;96477.34;;;16.44;100.00
55271;BME280;41132;47.162;9.470;2023-05-23T07:19:50;96477.59;;;16.28;100.00
55271;BME280;41132;47.162;9.470;2023-05-23T07:22:15;96464.28;;;16.15;100.00
55271;BME280;41132;47.162;9.470;2023-05-23T07:24:40;96458.66;;;16.24;100.00
55271;BME280;41132;47.162;9.470;2023-05-23T07:27:06;96473.28;;;16.48;100.00
55271;BME280;41132;47.162;9.470;2023-05-23T07:29:31;96479.84;;;16.53;100.00
55271;BME280;41132;47.162;9.470;2023-05-23T07:31:57;96467.91;;;16.35;100.00
55271;BME280;41132;47.162;9.470;2023-05-23T07:34:23;96480.22;;;16.49;100.00
55271;BME280;41132;47.162;9.470;2023-05-23T07:36:49;96465.06;;;16.37;100.00
55271;BME280;41132;47.162;9.470;2023-05-23T07:39:14;96436.66;;;16.24;100.00
55271;BME280;41132;47.162;9.470;2023-05-23T07:41:45;96490.66;;;16.51;100.00
55271;BME280;41132;47.162;9.470;2023-05-23T07:44:11;96480.69;;;16.60;100.00
55271;BME280;41132;47.162;9.470;2023-05-23T07:46:36;96465.34;;;16.48;100.00
55271;BME280;41132;47.162;9.470;2023-05-23T07:56:47;96471.16;;;16.37;100.00
55271;BME280;41132;47.162;9.470;2023-05-23T07:59:13;96477.84;;;16.61;100.00
55271;BME280;41132;47.162;9.470;2023-05-23T08:01:38;96485.78;;;16.83;100.00
55271;BME280;41132;47.162;9.470;2023-05-23T08:04:04;96479.06;;;16.87;100.00
55271;BME280;41132;47.162;9.470;2023-05-23T08:06:30;96451.81;;;16.65;100.00
55271;BME280;41132;47.162;9.470;2023-05-23T08:08:56;96476.22;;;16.60;100.00
55271;BME280;41132;47.162;9.470;2023-05-23T08:11:21;96474.84;;;16.71;100.00
55271;BME280;41132;47.162;9.470;2023-05-23T08:13:47;96488.50;;;16.68;100.00
55271;BME280;41132;47.162;9.470;2023-05-23T08:16:12;96477.13;;;16.74;100.00
55271;BME280;41132;47.162;9.470;2023-05-23T08:18:38;96490.72;;;16.93;100.00
55271;BME280;41132;47.162;9.470;2023-05-23T08:21:04;96475.88;;;16.70;100.00
55271;BME280;41132;47.162;9.470;2023-05-23T08:23:29;96494.84;;;17.02;100.00
55271;BME280;41132;47.162;9.470;2023-05-23T08:25:54;96496.25;;;16.98;100.00
55271;BME280;41132;47.162;9.470;2023-05-23T08:28:21;96505.25;;;17.03;100.00
55271;BME280;41132;47.162;9.470;2023-05-23T08:30:46;96504.03;;;16.78;100.00
55271;BME280;41132;47.162;9.470;2023-05-23T08:33:12;96499.25;;;16.88;100.00
55271;BME280;41132;47.162;9.470;2023-05-23T08:35:37;96505.38;;;16.88;100.00
55271;BME280;41132;47.162;9.470;2023-05-23T08:38:05;96492.63;;;16.77;100.00
55271;BME280;41132;47.162;9.470;2023-05-23T08:40:33;96510.81;;;16.80;100.00
55271;BME280;41132;47.162;9.470;2023-05-23T08:42:58;96494.03;;;16.73;100.00
55271;BME280;41132;47.162;9.470;2023-05-23T08:45:24;96506.81;;;16.63;100.00
55271;BME280;41132;47.162;9.470;2023-05-23T08:47:50;96523.63;;;16.77;100.00
55271;BME280;41132;47.162;9.470;2023-05-23T08:50:17;96518.41;;;16.83;100.00
55271;BME280;41132;47.162;9.470;2023-05-23T08:52:57;96517.59;;;16.61;100.00
55271;BME280;41132;47.162;9.470;2023-05-23T08:55:27;96523.34;;;16.65;100.00
55271;BME280;41132;47.162;9.470;2023-05-23T08:57:56;96516.22;;;16.65;100.00
55271;BME280;41132;47.162;9.470;2023-05-23T09:00:24;96522.75;;;16.69;100.00
55271;BME280;41132;47.162;9.470;2023-05-23T09:02:50;96531.72;;;16.68;100.00
55271;BME280;41132;47.162;9.470;2023-05-23T09:05:16;96535.81;;;16.71;100.00
55271;BME280;41132;47.162;9.470;2023-05-23T09:07:45;96532.28;;;16.64;100.00
55271;BME280;41132;47.162;9.470;2023-05-23T09:10:12;96531.31;;;16.43;100.00
55271;BME280;41132;47.162;9.470;2023-05-23T09:12:38;96531.13;;;16.45;100.00
55271;BME280;41132;47.162;9.470;2023-05-23T09:15:05;96528.66;;;16.43;100.00
55271;BME280;41132;47.162;9.470;2023-05-23T09:17:34;96546.41;;;16.71;100.00
55271;BME280;41132;47.162;9.470;2023-05-23T09:20:01;96526.38;;;16.62;100.00
55271;BME280;41132;47.162;9.470;2023-05-23T09:22:27;96519.03;;;16.64;100.00
55271;BME280;41132;47.162;9.470;2023-05-23T09:24:54;96544.91;;;16.83;100.00
55271;BME280;41132;47.162;9.470;2023-05-23T09:27:19;96545.13;;;16.88;100.00
55271;BME280;41132;47.162;9.470;2023-05-23T09:29:45;96534.38;;;16.97;100.00
55271;BME280;41132;47.162;9.470;2023-05-23T09:32:16;96535.59;;;17.01;100.00
55271;BME280;41132;47.162;9.470;2023-05-23T09:34:59;96541.34;;;17.04;100.00
55271;BME280;41132;47.162;9.470;2023-05-23T09:37:36;96550.47;;;16.95;100.00
55271;BME280;41132;47.162;9.470;2023-05-23T09:40:10;96548.28;;;17.05;100.00
55271;BME280;41132;47.162;9.470;2023-05-23T09:42:44;96540.59;;;17.10;100.00
55271;BME280;41132;47.162;9.470;2023-05-23T09:45:11;96529.34;;;17.08;100.00
55271;BME280;41132;47.162;9.470;2023-05-23T09:47:37;96548.72;;;17.09;100.00
55271;BME280;41132;47.162;9.470;2023-05-23T09:50:02;96517.91;;;17.01;100.00
55271;BME280;41132;47.162;9.470;2023-05-23T09:52:35;96543.66;;;17.14;100.00
55271;BME280;41132;47.162;9.470;2023-05-23T09:55:01;96540.81;;;17.16;100.00
55271;BME280;41132;47.162;9.470;2023-05-23T09:57:26;96544.03;;;17.11;100.00
55271;BME280;41132;47.162;9.470;2023-05-23T09:59:52;96545.91;;;17.17;100.00
55271;BME280;41132;47.162;9.470;2023-05-23T10:08:18;96530.81;;;17.18;100.00
55271;BME280;41132;47.162;9.470;2023-05-23T10:11:03;96535.50;;;17.16;100.00
55271;BME280;41132;47.162;9.470;2023-05-23T10:13:30;96528.72;;;17.06;100.00
55271;BME280;41132;47.162;9.470;2023-05-23T10:16:06;96520.81;;;17.13;100.00
55271;BME280;41132;47.162;9.470;2023-05-23T10:18:39;96530.63;;;17.19;100.00
55271;BME280;41132;47.162;9.470;2023-05-23T10:21:10;96523.94;;;17.30;100.00
55271;BME280;41132;47.162;9.470;2023-05-23T10:23:36;96504.69;;;17.08;100.00
55271;BME280;41132;47.162;9.470;2023-05-23T10:26:03;96521.28;;;17.30;100.00
55271;BME280;41132;47.162;9.470;2023-05-23T10:28:30;96515.91;;;17.17;100.00
55271;BME280;41132;47.162;9.470;2023-05-23T10:30:55;96522.13;;;17.30;100.00
55271;BME280;41132;47.162;9.470;2023-05-23T10:33:22;96511.47;;;17.24;100.00
55271;BME280;41132;47.162;9.470;2023-05-23T10:36:06;96516.41;;;17.33;100.00
55271;BME280;41132;47.162;9.470;2023-05-23T10:38:37;96493.94;;;17.29;100.00
55271;BME280;41132;47.162;9.470;2023-05-23T10:41:08;96518.28;;;17.40;100.00
55271;BME280;41132;47.162;9.470;2023-05-23T10:43:52;96516.03;;;17.43;100.00
55271;BME280;41132;47.162;9.470;2023-05-23T10:46:19;96517.25;;;17.41;100.00
55271;BME280;41132;47.162;9.470;2023-05-23T10:48:53;96508.84;;;17.37;100.00
55271;BME280;41132;47.162;9.470;2023-05-23T10:51:20;96498.25;;;17.30;100.00
55271;BME280;41132;47.162;9.470;2023-05-23T10:53:52;96484.81;;;17.39;100.00
55271;BME280;41132;47.162;9.470;2023-05-23T10:56:20;96491.13;;;17.38;100.00
55271;BME280;41132;47.162;9.470;2023-05-23T10:58:51;96500.56;;;17.47;100.00
55271;BME280;41132;47.162;9.470;2023-05-23T11:01:18;96490.56;;;17.49;100.00
55271;BME280;41132;47.162;9.470;2023-05-23T11:06:43;96491.56;;;17.48;100.00
55271;BME280;41132;47.162;9.470;2023-05-23T11:09:13;96480.97;;;17.54;100.00
55271;BME280;41132;47.162;9.470;2023-05-23T11:12:02;96480.19;;;17.67;100.00
55271;BME280;41132;47.162;9.470;2023-05-23T11:19:36;96465.63;;;17.43;100.00
55271;BME280;41132;47.162;9.470;2023-05-23T11:22:02;96467.72;;;17.61;100.00
55271;BME280;41132;47.162;9.470;2023-05-23T11:24:50;96471.47;;;17.93;100.00
55271;BME280;41132;47.162;9.470;2023-05-23T11:27:16;96466.78;;;17.95;100.00
55271;BME280;41132;47.162;9.470;2023-05-23T11:29:54;96461.69;;;18.01;100.00
55271;BME280;41132;47.162;9.470;2023-05-23T11:32:20;96465.38;;;18.00;100.00
55271;BME280;41132;47.162;9.470;2023-05-23T11:34:45;96457.41;;;18.13;100.00
55271;BME280;41132;47.162;9.470;2023-05-23T11:37:11;96458.66;;;18.30;100.00
55271;BME280;41132;47.162;9.470;2023-05-23T11:39:37;96450.00;;;18.62;100.00
55271;BME280;41132;47.162;9.470;2023-05-23T11:42:03;96447.13;;;18.70;100.00
55271;BME280;41132;47.162;9.470;2023-05-23T11:44:28;96420.16;;;18.53;100.00
55271;BME280;41132;47.162;9.470;2023-05-23T11:47:04;96429.75;;;18.74;100.00
55271;BME280;41132;47.162;9.470;2023-05-23T13:31:07;96359.03;;;19.50;100.00
55271;BME280;41132;47.162;9.470;2023-05-23T13:33:33;96354.88;;;19.60;100.00
55271;BME280;41132;47.162;9.470;2023-05-23T13:35:58;96362.78;;;19.74;100.00
55271;BME280;41132;47.162;9.470;2023-05-23T13:38:24;96360.06;;;19.80;100.00
55271;BME280;41132;47.162;9.470;2023-05-23T13:40:51;96347.41;;;19.76;100.00
55271;BME280;41132;47.162;9.470;2023-05-23T13:43:17;96354.03;;;19.92;100.00
55271;BME280;41132;47.162;9.470;2023-05-23T13:45:43;96346.06;;;19.92;100.00
55271;BME280;41132;47.162;9.470;2023-05-23T13:48:08;96357.66;;;19.97;100.00
55271;BME280;41132;47.162;9.470;2023-05-23T13:50:34;96323.69;;;19.93;100.00
55271;BME280;41132;47.162;9.470;2023-05-23T13:52:59;96367.50;;;19.97;100.00
55271;BME280;41132;47.162;9.470;2023-05-23T13:55:25;96344.34;;;19.72;100.00
55271;BME280;41132;47.162;9.470;2023-05-23T13:57:51;96380.13;;;19.83;100.00
55271;BME280;41132;47.162;9.470;2023-05-23T14:00:17;96369.88;;;19.80;100.00
55271;BME280;41132;47.162;9.470;2023-05-23T14:02:42;96376.66;;;19.83;100.00
55271;BME280;41132;47.162;9.470;2023-05-23T14:05:08;96377.28;;;19.78;100.00
55271;BME280;41132;47.162;9.470;2023-05-23T14:07:33;96367.50;;;19.72;100.00
55271;BME280;41132;47.162;9.470;2023-05-23T14:15:10;96376.19;;;19.54;100.00
55271;BME280;41132;47.162;9.470;2023-05-23T14:17:35;96376.84;;;19.49;100.00
55271;BME280;41132;47.162;9.470;2023-05-23T14:20:02;96381.59;;;19.40;100.00
55271;BME280;41132;47.162;9.470;2023-05-23T14:25:03;96393.13;;;19.28;100.00
55271;BME280;41132;47.162;9.470;2023-05-23T14:27:30;96390.91;;;19.25;100.00
55271;BME280;41132;47.162;9.470;2023-05-23T14:29:56;96401.00;;;19.09;100.00
55271;BME280;41132;47.162;9.470;2023-05-23T14:32:21;96407.13;;;19.10;100.00
55271;BME280;41132;47.162;9.470;2023-05-23T14:34:47;96414.78;;;18.93;100.00
55271;BME280;41132;47.162;9.470;2023-05-23T14:37:12;96426.47;;;18.92;100.00
55271;BME280;41132;47.162;9.470;2023-05-23T14:39:39;96420.56;;;18.83;100.00
55271;BME280;41132;47.162;9.470;2023-05-23T14:42:05;96402.94;;;18.69;100.00
55271;BME280;41132;47.162;9.470;2023-05-23T14:44:30;96444.88;;;18.80;100.00
55271;BME280;41132;47.162;9.470;2023-05-23T14:49:31;96449.00;;;18.63;100.00
55271;BME280;41132;47.162;9.470;2023-05-23T14:51:56;96479.66;;;18.65;100.00
55271;BME280;41132;47.162;9.470;2023-05-23T14:54:22;96448.81;;;18.44;100.00
55271;BME280;41132;47.162;9.470;2023-05-23T14:56:47;96483.31;;;18.57;100.00
55271;BME280;41132;47.162;9.470;2023-05-23T14:59:12;96490.09;;;18.40;100.00
55271;BME280;41132;47.162;9.470;2023-05-23T15:01:38;96490.72;;;18.29;100.00
55271;BME280;41132;47.162;9.470;2023-05-23T15:04:03;96462.91;;;18.11;100.00
55271;BME280;41132;47.162;9.470;2023-05-23T15:06:29;96490.28;;;18.12;100.00
55271;BME280;41132;47.162;9.470;2023-05-23T15:08:55;96466.16;;;17.87;100.00
55271;BME280;41132;47.162;9.470;2023-05-23T15:11:21;96483.25;;;17.78;100.00
55271;BME280;41132;47.162;9.470;2023-05-23T15:13:46;96467.28;;;17.44;100.00
55271;BME280;41132;47.162;9.470;2023-05-23T15:16:12;96466.44;;;17.30;100.00
55271;BME280;41132;47.162;9.470;2023-05-23T15:18:37;96464.19;;;17.41;100.00
55271;BME280;41132;47.162;9.470;2023-05-23T15:21:04;96422.03;;;17.04;100.00
55271;BME280;41132;47.162;9.470;2023-05-23T15:23:30;96452.91;;;17.25;100.00
55271;BME280;41132;47.162;9.470;2023-05-23T15:25:55;96457.22;;;17.26;100.00
55271;BME280;41132;47.162;9.470;2023-05-23T15:28:20;96452.09;;;17.25;100.00
55271;BME280;41132;47.162;9.470;2023-05-23T15:30:46;96441.88;;;17.15;100.00
55271;BME280;41132;47.162;9.470;2023-05-23T15:33:11;96445.09;;;17.04;100.00
55271;BME280;41132;47.162;9.470;2023-05-23T15:35:36;96437.22;;;16.82;100.00
55271;BME280;41132;47.162;9.470;2023-05-23T15:38:02;96432.50;;;16.78;100.00
55271;BME280;41132;47.162;9.470;2023-05-23T15:40:27;96430.25;;;16.75;100.00
55271;BME280;41132;47.162;9.470;2023-05-23T15:42:53;96422.09;;;16.76;100.00
55271;BME280;41132;47.162;9.470;2023-05-23T15:45:18;96417.88;;;16.82;100.00
55271;BME280;41132;47.162;9.470;2023-05-23T15:47:43;96420.41;;;16.97;100.00
55271;BME280;41132;47.162;9.470;2023-05-23T15:50:09;96428.59;;;17.08;100.00
55271;BME280;41132;47.162;9.470;2023-05-23T15:52:34;96417.81;;;17.10;100.00
55271;BME280;41132;47.162;9.470;2023-05-23T15:55:00;96431.06;;;17.17;100.00
55271;BME280;41132;47.162;9.470;2023-05-23T15:57:29;96432.63;;;16.98;100.00
55271;BME280;41132;47.162;9.470;2023-05-23T15:59:55;96439.75;;;16.97;100.00
55271;BME280;41132;47.162;9.470;2023-05-23T16:02:20;96444.19;;;16.83;100.00
55271;BME280;41132;47.162;9.470;2023-05-23T16:04:45;96440.16;;;16.94;100.00
55271;BME280;41132;47.162;9.470;2023-05-23T16:07:11;96423.88;;;17.04;100.00
55271;BME280;41132;47.162;9.470;2023-05-23T16:09:36;96434.53;;;17.10;100.00
55271;BME280;41132;47.162;9.470;2023-05-23T16:12:02;96436.38;;;17.10;100.00
55271;BME280;41132;47.162;9.470;2023-05-23T16:14:29;96418.16;;;17.00;100.00
55271;BME280;41132;47.162;9.470;2023-05-23T16:16:55;96443.13;;;17.19;100.00
55271;BME280;41132;47.162;9.470;2023-05-23T16:19:20;96405.91;;;16.99;100.00
55271;BME280;41132;47.162;9.470;2023-05-23T16:21:46;96440.88;;;17.23;100.00